Time;durP1;ratioP1;P1;durP2;ratioP2;P2;SDS_P1;SDS_P2;PMS_P1;PMS_P2;Temp;Humidity;BMP_temperature;BMP_pressure;BME280_temperature;BME280_humidity;BME280_pressure;Samples;Min_cycle;Max_cycle;Signal;HPM_P1;HPM_P2
2021/01/06 00:00:19;;;;;;;10.80;9.70;;;5.90;99.90;;;;;;2070336;28;20026;-80
2021/01/06 00:01:20;;;;;;;11.00;8.88;;;5.90;99.90;;;;;;2071886;28;20029;-80
2021/01/06 00:02:21;;;;;;;11.80;8.88;;;5.80;99.90;;;;;;2071818;28;20037;-79
2021/01/06 00:03:24;;;;;;;10.35;8.63;;;5.80;99.90;;;;;;2071794;28;20084;-81
2021/01/06 00:04:25;;;;;;;9.98;8.90;;;5.90;99.90;;;;;;2071937;28;20105;-81
2021/01/06 00:05:26;;;;;;;11.55;8.93;;;5.80;99.90;;;;;;2071551;28;20014;-81
2021/01/06 00:06:30;;;;;;;10.95;9.27;;;5.80;99.90;;;;;;2071398;28;20034;-81
2021/01/06 00:07:31;;;;;;;11.98;8.40;;;5.90;99.90;;;;;;2063030;28;20026;-80
2021/01/06 00:08:32;;;;;;;11.13;8.82;;;5.80;99.90;;;;;;2071354;28;20025;-80
2021/01/06 00:09:32;;;;;;;10.55;8.98;;;5.80;99.90;;;;;;2071902;28;20100;-80
2021/01/06 00:10:33;;;;;;;10.30;9.30;;;5.80;99.90;;;;;;2070915;28;20076;-81
2021/01/06 00:11:36;;;;;;;9.43;8.43;;;5.80;99.90;;;;;;2071591;28;20026;-80
2021/01/06 00:12:38;;;;;;;9.80;8.80;;;5.80;99.90;;;;;;2076200;28;20037;-80
2021/01/06 00:13:39;;;;;;;10.38;8.65;;;5.80;99.90;;;;;;2079616;28;20637;-81
2021/01/06 00:14:40;;;;;;;9.07;8.18;;;5.80;99.90;;;;;;2072297;28;20034;-79
2021/01/06 00:15:40;;;;;;;10.07;8.95;;;5.80;99.90;;;;;;2064471;28;20026;-82
2021/01/06 00:16:41;;;;;;;11.43;9.27;;;5.80;99.90;;;;;;2071550;28;21140;-82
2021/01/06 00:17:42;;;;;;;10.38;8.25;;;5.80;99.90;;;;;;2071108;28;20057;-82
2021/01/06 00:18:43;;;;;;;9.65;8.65;;;5.80;99.90;;;;;;2072089;28;20041;-80
2021/01/06 00:19:43;;;;;;;11.02;9.55;;;5.90;99.90;;;;;;2072659;28;20388;-80
2021/01/06 00:20:44;;;;;;;9.60;8.55;;;5.90;99.90;;;;;;2072034;28;20025;-80
2021/01/06 00:21:45;;;;;;;9.93;8.93;;;5.90;99.90;;;;;;2073164;28;20523;-82
2021/01/06 00:22:46;;;;;;;11.18;8.82;;;5.90;99.90;;;;;;2071569;28;20050;-82
2021/01/06 00:23:47;;;;;;;9.55;8.57;;;5.90;99.90;;;;;;2072005;28;20086;-81
2021/01/06 00:24:47;;;;;;;9.20;8.30;;;5.90;99.90;;;;;;2072487;28;20025;-80
2021/01/06 00:25:48;;;;;;;9.15;8.15;;;5.90;99.90;;;;;;2071833;28;20026;-81
2021/01/06 00:26:48;;;;;;;9.05;8.05;;;5.90;99.90;;;;;;2062846;28;20018;-81
2021/01/06 00:27:49;;;;;;;8.35;7.53;;;5.80;99.90;;;;;;2063653;28;20085;-81
2021/01/06 00:28:50;;;;;;;8.73;7.93;;;5.80;99.90;;;;;;2055654;28;20130;-81
2021/01/06 00:29:50;;;;;;;9.43;8.23;;;5.80;99.90;;;;;;2067986;28;20030;-82
2021/01/06 00:30:56;;;;;;;11.57;8.20;;;5.80;99.90;;;;;;2071472;28;20025;-81
2021/01/06 00:31:57;;;;;;;9.15;7.90;;;5.80;99.90;;;;;;2064570;28;20038;-81
2021/01/06 00:33:00;;;;;;;9.18;8.15;;;5.80;99.90;;;;;;2075695;28;20037;-80
2021/01/06 00:34:00;;;;;;;9.95;8.68;;;5.80;99.90;;;;;;2072488;28;20026;-82
2021/01/06 00:35:01;;;;;;;8.38;7.57;;;5.80;99.90;;;;;;2072420;28;20033;-80
2021/01/06 00:36:09;;;;;;;11.15;8.77;;;5.80;99.90;;;;;;2072493;28;20025;-82
2021/01/06 00:37:11;;;;;;;9.48;8.30;;;5.80;99.90;;;;;;2071483;28;20030;-83
2021/01/06 00:38:12;;;;;;;8.68;7.80;;;5.90;99.90;;;;;;2072531;28;20271;-79
2021/01/06 00:39:13;;;;;;;9.57;8.60;;;5.90;99.90;;;;;;2072230;28;20029;-83
2021/01/06 00:40:15;;;;;;;8.88;7.97;;;5.90;99.90;;;;;;2072715;28;20037;-83
2021/01/06 00:41:25;;;;;;;9.38;8.15;;;5.90;99.90;;;;;;2071964;28;20246;-81
2021/01/06 00:42:26;;;;;;;9.80;8.80;;;5.90;99.90;;;;;;2071887;28;20404;-80
2021/01/06 00:43:27;;;;;;;8.63;7.78;;;5.80;99.90;;;;;;2072533;28;20056;-80
2021/01/06 00:44:28;;;;;;;10.02;8.25;;;5.90;99.90;;;;;;2072536;28;20092;-82
2021/01/06 00:45:28;;;;;;;8.80;7.93;;;5.90;99.90;;;;;;2072170;28;20026;-81
2021/01/06 00:46:32;;;;;;;9.25;8.32;;;5.90;99.90;;;;;;2072550;28;20048;-80
2021/01/06 00:47:32;;;;;;;9.48;8.40;;;5.90;99.90;;;;;;2071153;28;20029;-81
2021/01/06 00:48:33;;;;;;;9.85;8.25;;;5.90;99.90;;;;;;2063260;28;20097;-80
2021/01/06 00:49:33;;;;;;;10.15;8.43;;;5.80;99.90;;;;;;2070259;28;20044;-80
2021/01/06 00:50:35;;;;;;;9.23;8.20;;;5.80;99.90;;;;;;2065781;28;20026;-80
2021/01/06 00:51:35;;;;;;;9.35;8.35;;;5.80;99.90;;;;;;2072781;28;20105;-83
2021/01/06 00:52:36;;;;;;;8.88;7.78;;;5.90;99.90;;;;;;2070555;28;20043;-80
2021/01/06 00:53:36;;;;;;;8.98;7.85;;;5.90;99.90;;;;;;2055674;28;20049;-81
2021/01/06 00:54:38;;;;;;;8.77;7.85;;;5.90;99.90;;;;;;2071210;28;20022;-81
2021/01/06 00:55:39;;;;;;;8.75;7.85;;;5.90;99.90;;;;;;2072315;28;20033;-82
2021/01/06 00:56:39;;;;;;;8.63;7.82;;;5.90;99.90;;;;;;2077767;28;20091;-82
2021/01/06 00:57:40;;;;;;;9.15;8.20;;;5.90;99.90;;;;;;2067265;28;20037;-80
2021/01/06 00:58:41;;;;;;;8.75;7.85;;;5.90;99.90;;;;;;2065633;28;20833;-81
2021/01/06 00:59:41;;;;;;;8.65;7.75;;;5.90;99.90;;;;;;2071854;28;20458;-80
2021/01/06 01:00:42;;;;;;;8.48;7.68;;;5.90;99.90;;;;;;2071431;28;20030;-82
2021/01/06 01:01:42;;;;;;;11.57;8.85;;;5.90;99.90;;;;;;2072711;28;20317;-81
2021/01/06 01:02:50;;;;;;;8.63;7.70;;;5.90;99.90;;;;;;2072312;28;20248;-82
2021/01/06 01:03:51;;;;;;;7.90;7.10;;;5.90;99.90;;;;;;2071174;28;20066;-82
2021/01/06 01:04:51;;;;;;;8.75;7.85;;;5.90;99.90;;;;;;2063369;28;20504;-81
2021/01/06 01:05:52;;;;;;;8.23;7.43;;;5.80;99.90;;;;;;2071555;28;20033;-81
2021/01/06 01:06:53;;;;;;;9.85;8.82;;;5.90;99.90;;;;;;2063081;28;20612;-80
2021/01/06 01:07:54;;;;;;;8.48;7.68;;;5.80;99.90;;;;;;2071992;28;20028;-82
2021/01/06 01:08:55;;;;;;;8.80;7.90;;;5.90;99.90;;;;;;2072846;28;20022;-82
2021/01/06 01:09:56;;;;;;;10.60;7.75;;;5.80;99.90;;;;;;2073196;28;20037;-81
2021/01/06 01:10:57;;;;;;;8.50;7.60;;;5.80;99.90;;;;;;2073113;28;20029;-81
2021/01/06 01:11:57;;;;;;;8.68;7.80;;;5.80;99.90;;;;;;2072437;28;20026;-83
2021/01/06 01:13:09;;;;;;;8.52;7.70;;;5.90;99.90;;;;;;2071320;28;20034;-82
2021/01/06 01:14:10;;;;;;;8.60;7.70;;;5.80;99.90;;;;;;2064120;28;20030;-82
2021/01/06 01:15:11;;;;;;;7.57;6.80;;;5.80;99.90;;;;;;2068520;28;20029;-81
2021/01/06 01:16:12;;;;;;;7.82;7.03;;;5.80;99.90;;;;;;2072516;28;20037;-80
2021/01/06 01:17:12;;;;;;;8.10;7.30;;;5.80;99.90;;;;;;2071450;28;20018;-81
2021/01/06 01:18:20;;;;;;;7.90;7.10;;;5.80;99.90;;;;;;2071932;28;20100;-81
2021/01/06 01:19:20;;;;;;;9.05;7.80;;;5.80;99.90;;;;;;2072324;28;20033;-81
2021/01/06 01:20:21;;;;;;;8.50;7.60;;;5.80;99.90;;;;;;2072092;28;20093;-81
2021/01/06 01:21:22;;;;;;;8.35;6.93;;;5.80;99.90;;;;;;2072209;28;20026;-81
2021/01/06 01:22:22;;;;;;;8.00;7.25;;;5.80;99.90;;;;;;2071353;28;20032;-79
2021/01/06 01:23:25;;;;;;;7.60;6.80;;;5.80;99.90;;;;;;2072093;28;20026;-81
2021/01/06 01:24:26;;;;;;;8.30;7.50;;;5.80;99.90;;;;;;2079864;28;20017;-80
2021/01/06 01:25:27;;;;;;;7.55;6.75;;;5.80;99.90;;;;;;2079738;28;20069;-82
2021/01/06 01:26:28;;;;;;;8.32;7.53;;;5.90;99.90;;;;;;2072179;28;20049;-81
2021/01/06 01:27:28;;;;;;;7.45;6.75;;;5.80;99.90;;;;;;2071362;28;20021;-81
2021/01/06 01:28:29;;;;;;;7.47;6.78;;;5.80;99.90;;;;;;2071325;28;20010;-80
2021/01/06 01:29:30;;;;;;;8.68;7.03;;;5.90;99.90;;;;;;2063428;28;20082;-82
2021/01/06 01:30:31;;;;;;;8.88;7.57;;;5.90;99.90;;;;;;2071173;28;20029;-82
2021/01/06 01:31:33;;;;;;;8.02;6.70;;;5.90;99.90;;;;;;2072085;28;20277;-82
2021/01/06 01:32:34;;;;;;;8.27;7.47;;;5.90;99.90;;;;;;2071982;28;20037;-82
2021/01/06 01:33:34;;;;;;;8.20;6.72;;;5.90;99.90;;;;;;2063916;28;20370;-81
2021/01/06 01:34:36;;;;;;;9.93;8.20;;;5.90;99.90;;;;;;2066453;28;20037;-82
2021/01/06 01:35:36;;;;;;;8.38;6.72;;;5.90;99.90;;;;;;2071624;28;20517;-80
2021/01/06 01:36:37;;;;;;;7.95;7.15;;;5.90;99.90;;;;;;2072065;28;20064;-81
2021/01/06 01:37:42;;;;;;;7.80;6.88;;;5.90;99.90;;;;;;2070936;28;20034;-82
2021/01/06 01:38:43;;;;;;;7.88;7.13;;;5.90;99.90;;;;;;2064103;28;20718;-81
2021/01/06 01:39:44;;;;;;;8.05;7.05;;;5.90;99.90;;;;;;2071541;28;20033;-82
2021/01/06 01:40:45;;;;;;;8.55;7.13;;;5.90;99.90;;;;;;2072136;28;20022;-81
2021/01/06 01:41:46;;;;;;;8.50;6.20;;;5.90;99.90;;;;;;2072401;28;20053;-81
2021/01/06 01:42:55;;;;;;;7.70;7.00;;;5.90;99.90;;;;;;2071163;28;20050;-81
2021/01/06 01:43:55;;;;;;;7.78;7.00;;;5.90;99.90;;;;;;2064318;28;20727;-80
2021/01/06 01:44:58;;;;;;;7.28;6.32;;;5.90;99.90;;;;;;2071096;28;20022;-80
2021/01/06 01:45:59;;;;;;;7.15;6.45;;;5.90;99.90;;;;;;2071943;28;20033;-82
2021/01/06 01:47:20;;;;;;;7.55;6.78;;;5.90;99.90;;;;;;2070944;28;20544;-80
2021/01/06 01:48:32;;;;;;;7.57;6.63;;;5.90;99.90;;;;;;2070971;28;20093;-82
2021/01/06 01:49:41;;;;;;;7.90;7.10;;;5.90;99.90;;;;;;2066069;28;20385;-81
2021/01/06 01:50:42;;;;;;;7.45;6.72;;;5.90;99.90;;;;;;2072244;28;20030;-83
2021/01/06 01:52:03;;;;;;;7.35;6.45;;;5.90;99.90;;;;;;2069604;28;20028;-81
2021/01/06 01:53:09;;;;;;;;;;;5.90;99.90;;;;;;2072907;28;20041;-81
2021/01/06 01:54:13;;;;;;;7.55;6.72;;;5.80;99.90;;;;;;2071781;28;19913;-81
2021/01/06 01:55:15;;;;;;;8.00;7.20;;;5.80;99.90;;;;;;2072684;28;20080;-82
2021/01/06 01:56:20;;;;;;;7.68;6.97;;;5.80;99.90;;;;;;2072526;28;20595;-82
2021/01/06 01:57:32;;;;;;;7.85;7.15;;;5.80;99.90;;;;;;2071673;28;20512;-81
2021/01/06 01:58:35;;;;;;;8.70;7.20;;;5.90;99.90;;;;;;2071907;28;20489;-82
2021/01/06 01:59:41;;;;;;;7.50;6.78;;;5.90;99.90;;;;;;2072564;28;20547;-83
2021/01/06 02:00:43;;;;;;;8.27;7.00;;;5.80;99.90;;;;;;2072270;28;20030;-83
2021/01/06 02:01:47;;;;;;;8.07;7.25;;;5.90;99.90;;;;;;2065025;28;20413;-82
2021/01/06 02:03:17;;;;;;;7.50;6.47;;;5.90;99.90;;;;;;2065655;28;20041;-83
2021/01/06 02:04:27;;;;;;;7.30;6.53;;;5.90;99.90;;;;;;2073373;28;20022;-82
2021/01/06 02:05:39;;;;;;;9.07;6.72;;;5.80;99.90;;;;;;2073026;28;20022;-82
2021/01/06 02:06:50;;;;;;;8.15;7.30;;;5.80;99.90;;;;;;2072203;28;20025;-82
2021/01/06 02:08:43;;;;;;;7.65;6.55;;;5.80;99.90;;;;;;2076334;28;20666;-82
2021/01/06 02:10:06;;;;;;;7.68;6.80;;;5.80;99.90;;;;;;2064303;28;20097;-82
2021/01/06 02:11:19;;;;;;;7.43;6.60;;;5.80;99.90;;;;;;2066323;28;20035;-82
2021/01/06 02:12:44;;;;;;;7.88;7.10;;;5.80;99.90;;;;;;2072363;28;20041;-82
2021/01/06 02:14:01;;;;;;;8.77;7.40;;;5.80;99.90;;;;;;2068161;28;20076;-82
2021/01/06 02:15:35;;;;;;;8.25;7.22;;;5.80;99.90;;;;;;2072092;28;20034;-82
2021/01/06 02:16:53;;;;;;;8.00;7.05;;;5.80;99.90;;;;;;2064281;28;20111;-81
2021/01/06 02:17:54;;;;;;;9.57;7.13;;;5.80;99.90;;;;;;2071247;28;20045;-80
2021/01/06 02:18:55;;;;;;;7.43;6.60;;;5.80;99.90;;;;;;2063983;28;20062;-79
2021/01/06 02:19:55;;;;;;;7.43;6.72;;;5.80;99.90;;;;;;2068925;28;20030;-81
2021/01/06 02:21:06;;;;;;;7.20;6.47;;;5.80;99.90;;;;;;2076528;28;20041;-82
2021/01/06 02:22:08;;;;;;;;;;;5.90;99.90;;;;;;2079647;28;20030;-82
2021/01/06 02:23:09;;;;;;;8.07;7.22;;;5.70;99.90;;;;;;2077841;28;20008;-82
2021/01/06 02:24:09;;;;;;;6.80;6.20;;;5.80;99.90;;;;;;2073725;28;20026;-82
2021/01/06 02:25:11;;;;;;;7.65;6.88;;;5.80;99.90;;;;;;2082872;28;20022;-82
2021/01/06 02:26:12;;;;;;;9.48;7.47;;;5.80;99.90;;;;;;2079846;28;20612;-82
2021/01/06 02:27:12;;;;;;;7.53;6.82;;;5.80;99.90;;;;;;2071261;28;20080;-82
2021/01/06 02:28:13;;;;;;;8.20;7.10;;;5.80;99.90;;;;;;2072014;28;20018;-82
2021/01/06 02:29:14;;;;;;;7.50;6.70;;;5.80;99.90;;;;;;2077482;28;20021;-80
2021/01/06 02:30:16;;;;;;;9.20;7.25;;;5.80;99.90;;;;;;2072754;28;20026;-81
2021/01/06 02:31:18;;;;;;;7.35;6.13;;;5.80;99.90;;;;;;2072579;28;20678;-81
2021/01/06 02:32:19;;;;;;;7.90;7.07;;;5.80;99.90;;;;;;2073411;28;20108;-81
2021/01/06 02:33:20;;;;;;;7.35;6.75;;;5.80;99.90;;;;;;2067715;28;20018;-82
2021/01/06 02:34:21;;;;;;;7.55;6.63;;;5.90;99.90;;;;;;2071160;28;20072;-81
2021/01/06 02:35:22;;;;;;;8.95;7.15;;;5.90;99.90;;;;;;2071836;28;20069;-81
2021/01/06 02:36:23;;;;;;;8.35;7.38;;;5.90;99.90;;;;;;2072059;28;20053;-81
2021/01/06 02:37:23;;;;;;;6.80;6.07;;;5.90;99.90;;;;;;2064049;28;20054;-82
2021/01/06 02:38:24;;;;;;;7.95;6.97;;;5.80;99.90;;;;;;2071672;28;20542;-81
2021/01/06 02:39:25;;;;;;;8.50;6.90;;;5.90;99.90;;;;;;2072299;28;20026;-82
2021/01/06 02:40:26;;;;;;;8.13;7.20;;;5.90;99.90;;;;;;2071759;28;20068;-81
2021/01/06 02:41:27;;;;;;;8.15;7.35;;;5.90;99.90;;;;;;2072182;28;20463;-81
2021/01/06 02:42:27;;;;;;;6.70;6.10;;;5.90;99.90;;;;;;2071507;28;20065;-82
2021/01/06 02:43:28;;;;;;;8.35;7.07;;;5.90;99.90;;;;;;2071964;28;20018;-82
2021/01/06 02:44:30;;;;;;;7.13;6.30;;;5.90;99.90;;;;;;2072345;28;20083;-83
2021/01/06 02:45:30;;;;;;;8.38;6.78;;;5.90;99.90;;;;;;2072749;28;20354;-81
2021/01/06 02:46:33;;;;;;;7.03;6.32;;;5.90;99.90;;;;;;2071718;28;20142;-82
2021/01/06 02:47:34;;;;;;;9.05;7.20;;;5.90;99.90;;;;;;2071242;28;20022;-82
2021/01/06 02:48:36;;;;;;;8.57;6.50;;;5.90;99.90;;;;;;2065499;28;20069;-82
2021/01/06 02:49:36;;;;;;;9.23;7.05;;;5.90;99.90;;;;;;2069906;28;20021;-81
2021/01/06 02:50:42;;;;;;;6.72;5.97;;;5.90;99.90;;;;;;2065192;28;20386;-81
2021/01/06 02:51:51;;;;;;;7.95;6.70;;;5.90;99.90;;;;;;2079008;28;20147;-81
2021/01/06 02:53:01;;;;;;;7.97;7.00;;;5.90;99.90;;;;;;2071194;28;20026;-81
2021/01/06 02:54:05;;;;;;;7.45;6.75;;;5.90;99.90;;;;;;2072420;28;20168;-81
2021/01/06 02:55:08;;;;;;;7.22;6.30;;;5.90;99.90;;;;;;2072246;28;20420;-81
2021/01/06 02:56:11;;;;;;;7.47;6.68;;;5.90;99.90;;;;;;2072383;28;20030;-81
2021/01/06 02:57:14;;;;;;;6.55;5.88;;;5.80;99.90;;;;;;2071552;28;20014;-81
2021/01/06 02:58:21;;;;;;;7.53;6.63;;;5.90;99.90;;;;;;2072275;28;20028;-82
2021/01/06 02:59:26;;;;;;;6.72;6.13;;;5.80;99.90;;;;;;2072140;28;20026;-81
2021/01/06 03:00:27;;;;;;;7.40;6.80;;;5.80;99.90;;;;;;2072276;28;20431;-81
2021/01/06 03:01:31;;;;;;;11.40;6.72;;;5.90;99.90;;;;;;2073482;28;20026;-82
2021/01/06 03:02:32;;;;;;;6.88;6.05;;;5.90;99.90;;;;;;2073280;28;20113;-81
2021/01/06 03:03:39;;;;;;;8.40;6.80;;;5.90;99.90;;;;;;2073655;28;20485;-80
2021/01/06 03:04:46;;;;;;;6.78;6.10;;;5.90;99.90;;;;;;2073309;28;20021;-81
2021/01/06 03:06:06;;;;;;;7.60;6.32;;;5.90;99.90;;;;;;2073271;28;20034;-81
2021/01/06 03:07:08;;;;;;;;;;;5.90;99.90;;;;;;2072246;28;20022;-80
2021/01/06 03:08:12;;;;;;;6.63;5.88;;;5.80;99.90;;;;;;2064691;28;19905;-80
2021/01/06 03:09:22;;;;;;;7.45;6.25;;;5.80;99.90;;;;;;2064734;28;20500;-80
2021/01/06 03:10:22;;;;;;;7.47;6.78;;;5.80;99.90;;;;;;2069736;28;20028;-82
2021/01/06 03:11:23;;;;;;;7.60;6.63;;;5.80;99.90;;;;;;2072949;28;20030;-80
2021/01/06 03:12:29;;;;;;;7.40;6.63;;;5.80;99.90;;;;;;2072737;28;20022;-79
2021/01/06 03:13:30;;;;;;;8.20;6.50;;;5.80;99.90;;;;;;2073276;28;20714;-80
2021/01/06 03:14:33;;;;;;;7.25;6.53;;;5.80;99.90;;;;;;2072753;28;20551;-79
2021/01/06 03:15:34;;;;;;;7.80;6.88;;;5.80;99.90;;;;;;2064639;28;20030;-81
2021/01/06 03:16:35;;;;;;;9.10;7.85;;;5.80;99.90;;;;;;2072744;28;20049;-80
2021/01/06 03:17:35;;;;;;;7.50;6.65;;;5.80;99.90;;;;;;2072532;28;20489;-81
2021/01/06 03:18:37;;;;;;;8.07;6.70;;;5.90;99.90;;;;;;2073425;28;20083;-80
2021/01/06 03:19:43;;;;;;;6.47;5.88;;;5.80;99.90;;;;;;2073170;28;20049;-81
2021/01/06 03:20:46;;;;;;;7.70;6.75;;;5.90;99.90;;;;;;2072572;28;20128;-80
2021/01/06 03:21:48;;;;;;;8.15;6.45;;;5.80;99.90;;;;;;2064349;28;20034;-80
2021/01/06 03:22:55;;;;;;;9.23;7.07;;;5.80;99.90;;;;;;2064298;28;20640;-79
2021/01/06 03:23:58;;;;;;;7.80;7.10;;;5.80;99.90;;;;;;2072662;28;20033;-80
2021/01/06 03:25:11;;;;;;;7.75;6.95;;;5.80;99.90;;;;;;2073120;28;20057;-80
2021/01/06 03:26:16;;;;;;;7.70;6.93;;;5.80;99.90;;;;;;2073275;28;20028;-80
2021/01/06 03:27:19;;;;;;;7.53;6.68;;;5.80;99.90;;;;;;2072424;28;20041;-81
2021/01/06 03:28:21;;;;;;;7.40;6.70;;;5.80;99.90;;;;;;2073315;28;20036;-80
2021/01/06 03:29:23;;;;;;;7.82;7.03;;;5.80;99.90;;;;;;2072957;28;20481;-82
2021/01/06 03:30:28;;;;;;;8.48;7.15;;;5.80;99.90;;;;;;2073070;28;20101;-81
2021/01/06 03:31:45;;;;;;;7.28;6.47;;;5.80;99.90;;;;;;2072275;28;20014;-80
2021/01/06 03:33:04;;;;;;;8.00;7.20;;;5.80;99.90;;;;;;2072639;28;20806;-81
2021/01/06 03:34:28;;;;;;;8.38;7.55;;;5.80;99.90;;;;;;2072857;28;20386;-81
2021/01/06 03:35:41;;;;;;;8.40;7.30;;;5.80;99.90;;;;;;2053695;28;20069;-79
2021/01/06 03:36:44;;;;;;;6.95;6.25;;;5.80;99.90;;;;;;2071590;28;20033;-82
2021/01/06 03:37:53;;;;;;;9.00;7.47;;;5.80;99.90;;;;;;2072866;28;20050;-80
2021/01/06 03:39:01;;;;;;;8.50;7.60;;;5.70;99.90;;;;;;2072949;28;20061;-81
2021/01/06 03:40:37;;;;;;;7.40;6.68;;;5.80;99.90;;;;;;2072814;28;20034;-81
2021/01/06 03:41:38;;;;;;;7.35;6.65;;;5.80;99.90;;;;;;2069812;28;20046;-80
2021/01/06 03:42:41;;;;;;;8.07;6.70;;;5.70;99.90;;;;;;2072034;28;20128;-81
2021/01/06 03:43:52;;;;;;;7.82;7.03;;;5.70;99.90;;;;;;2072252;28;20033;-80
2021/01/06 03:44:53;;;;;;;8.60;6.72;;;5.70;99.90;;;;;;2079498;28;20018;-80
2021/01/06 03:46:03;;;;;;;7.40;6.70;;;5.70;99.90;;;;;;2080458;28;20120;-80
2021/01/06 03:47:19;;;;;;;8.30;7.00;;;5.70;99.90;;;;;;2071858;28;20026;-81
2021/01/06 03:48:34;;;;;;;7.50;6.80;;;5.70;99.90;;;;;;2064710;28;20257;-80
2021/01/06 03:49:57;;;;;;;6.80;6.18;;;5.70;99.90;;;;;;2070067;28;20025;-80
2021/01/06 03:51:04;;;;;;;7.03;6.32;;;5.70;99.90;;;;;;2064976;28;20035;-80
2021/01/06 03:52:23;;;;;;;7.57;6.68;;;5.60;99.90;;;;;;2065609;28;20026;-80
2021/01/06 03:53:35;;;;;;;8.60;7.70;;;5.70;99.90;;;;;;2072055;28;20393;-80
2021/01/06 03:54:58;;;;;;;8.73;7.38;;;5.70;99.90;;;;;;2065468;28;20030;-80
2021/01/06 03:56:12;;;;;;;8.15;7.35;;;5.70;99.90;;;;;;2072655;28;20575;-81
2021/01/06 03:57:13;;;;;;;8.60;7.78;;;5.70;99.90;;;;;;2071241;28;20523;-81
2021/01/06 03:58:48;;;;;;;8.57;7.72;;;5.70;99.90;;;;;;2071162;28;20567;-79
2021/01/06 03:59:50;;;;;;;9.38;8.38;;;5.60;99.90;;;;;;2072954;28;20032;-81
2021/01/06 04:00:57;;;;;;;9.45;8.52;;;5.60;99.90;;;;;;2071813;28;20030;-80
2021/01/06 04:02:14;;;;;;;10.63;9.63;;;5.70;99.90;;;;;;2071521;28;20022;-80
2021/01/06 04:03:38;;;;;;;10.07;9.02;;;5.70;99.90;;;;;;2072056;28;20021;-80
2021/01/06 04:04:43;;;;;;;9.95;8.95;;;5.60;99.90;;;;;;2063276;28;20018;-81
2021/01/06 04:05:46;;;;;;;9.60;8.60;;;5.70;99.90;;;;;;2069034;28;20376;-80
2021/01/06 04:06:50;;;;;;;10.18;9.15;;;5.70;99.90;;;;;;2071310;28;20030;-81
2021/01/06 04:07:53;;;;;;;11.90;10.65;;;5.70;99.90;;;;;;2071502;28;20054;-80
2021/01/06 04:08:56;;;;;;;11.50;10.40;;;5.70;99.90;;;;;;2071750;28;20481;-80
2021/01/06 04:09:59;;;;;;;11.40;10.18;;;5.70;99.90;;;;;;2071675;28;20365;-80
2021/01/06 04:11:02;;;;;;;10.93;9.57;;;5.70;99.90;;;;;;2071464;28;20030;-80
2021/01/06 04:12:09;;;;;;;11.60;10.38;;;5.70;99.90;;;;;;2071695;28;20483;-81
2021/01/06 04:13:10;;;;;;;11.75;10.55;;;5.70;99.90;;;;;;2064166;28;20023;-80
2021/01/06 04:14:11;;;;;;;11.70;10.63;;;5.80;99.90;;;;;;2072107;28;20025;-80
2021/01/06 04:15:13;;;;;;;11.68;10.48;;;5.70;99.90;;;;;;2071856;28;20014;-80
2021/01/06 04:16:14;;;;;;;12.35;10.13;;;5.80;99.90;;;;;;2071781;28;20022;-80
2021/01/06 04:17:22;;;;;;;12.70;10.43;;;5.80;99.90;;;;;;2070808;28;20026;-80
2021/01/06 04:18:23;;;;;;;12.38;11.20;;;5.80;99.90;;;;;;2071743;28;20026;-80
2021/01/06 04:19:23;;;;;;;13.43;11.80;;;5.80;99.90;;;;;;2071126;28;20030;-80
2021/01/06 04:20:38;;;;;;;13.18;11.77;;;5.80;99.90;;;;;;2062972;28;20033;-80
2021/01/06 04:21:38;;;;;;;13.43;11.73;;;5.80;99.90;;;;;;2071046;28;20643;-82
2021/01/06 04:22:41;;;;;;;13.23;11.98;;;5.80;99.90;;;;;;2070277;28;20034;-80
2021/01/06 04:23:42;;;;;;;13.45;12.05;;;5.80;99.90;;;;;;2070777;28;20750;-80
2021/01/06 04:24:43;;;;;;;12.75;11.45;;;5.80;99.90;;;;;;2071448;28;20072;-81
2021/01/06 04:25:46;;;;;;;14.45;12.52;;;5.70;99.90;;;;;;2071821;28;20030;-82
2021/01/06 04:26:47;;;;;;;12.60;11.25;;;5.80;99.90;;;;;;2070381;28;20030;-82
2021/01/06 04:27:56;;;;;;;15.10;12.32;;;5.80;99.90;;;;;;2071125;28;20029;-80
2021/01/06 04:28:57;;;;;;;14.43;12.63;;;5.80;99.90;;;;;;2063529;28;20034;-81
2021/01/06 04:29:58;;;;;;;13.10;11.40;;;5.80;99.90;;;;;;2068851;28;20026;-81
2021/01/06 04:31:21;;;;;;;13.07;11.75;;;5.80;99.90;;;;;;2071377;28;20147;-80
2021/01/06 04:32:29;;;;;;;12.85;11.52;;;5.80;99.90;;;;;;2063144;28;20053;-80
2021/01/06 04:33:41;;;;;;;12.32;11.23;;;5.80;99.90;;;;;;2062689;28;20041;-81
2021/01/06 04:34:43;;;;;;;13.88;12.43;;;5.70;99.90;;;;;;2064275;28;20063;-80
2021/01/06 04:35:45;;;;;;;13.80;12.35;;;5.70;99.90;;;;;;2070915;28;20080;-80
2021/01/06 04:36:45;;;;;;;12.95;11.63;;;5.70;99.90;;;;;;2070529;28;20516;-80
2021/01/06 04:37:46;;;;;;;13.88;12.48;;;5.70;99.90;;;;;;2071316;28;20068;-80
2021/01/06 04:38:50;;;;;;;13.20;11.90;;;5.70;99.90;;;;;;2071246;28;20056;-81
2021/01/06 04:39:50;;;;;;;13.25;11.85;;;5.70;99.90;;;;;;2070810;28;20034;-80
2021/01/06 04:40:56;;;;;;;14.68;12.07;;;5.70;99.90;;;;;;2062527;28;20027;-80
2021/01/06 04:42:04;;;;;;;14.00;12.32;;;5.70;99.90;;;;;;2070384;28;20036;-80
2021/01/06 04:43:25;;;;;;;14.02;12.45;;;5.70;99.90;;;;;;2071229;28;20022;-80
2021/01/06 04:44:45;;;;;;;;;;;5.70;99.90;;;;;;2074913;28;20028;-82
2021/01/06 04:45:56;;;;;;;12.45;11.23;;;5.60;99.90;;;;;;2065111;28;20106;-80
2021/01/06 04:47:02;;;;;;;13.23;11.93;;;5.70;99.90;;;;;;2070006;28;20034;-82
2021/01/06 04:48:40;;;;;;;12.13;10.93;;;5.70;99.90;;;;;;2070894;28;20022;-80
2021/01/06 04:50:07;;;;;;;13.23;11.90;;;5.60;99.90;;;;;;2069429;28;20029;-81
2021/01/06 04:51:39;;;;;;;12.68;11.48;;;5.70;99.90;;;;;;2071032;28;20018;-80
2021/01/06 04:52:49;;;;;;;13.85;11.68;;;5.70;99.90;;;;;;2038502;29;20573;-80
2021/01/06 04:54:12;;;;;;;11.67;10.47;;;5.70;99.90;;;;;;2071579;28;20412;-82
2021/01/06 04:55:35;;;;;;;13.32;11.98;;;5.70;99.90;;;;;;2075516;28;20104;-82
2021/01/06 04:56:46;;;;;;;13.50;11.93;;;5.60;99.90;;;;;;2076611;28;20026;-82
2021/01/06 04:58:22;;;;;;;13.27;11.20;;;5.60;99.90;;;;;;2075866;28;20026;-82
2021/01/06 04:59:37;;;;;;;12.95;11.50;;;5.60;99.90;;;;;;2072720;28;20396;-82
2021/01/06 05:00:57;;;;;;;12.50;10.95;;;5.60;99.90;;;;;;2072339;28;20033;-81
2021/01/06 05:02:28;;;;;;;12.13;10.93;;;5.60;99.90;;;;;;2071189;28;20022;-81
2021/01/06 05:03:35;;;;;;;12.52;10.90;;;5.60;99.90;;;;;;2070994;28;20140;-80
2021/01/06 05:05:13;;;;;;;13.80;10.95;;;5.60;99.90;;;;;;2071435;28;20022;-82
2021/01/06 05:06:22;;;;;;;12.38;11.15;;;5.60;99.90;;;;;;2070486;28;20573;-82
2021/01/06 05:07:48;;;;;;;12.85;11.50;;;5.60;99.90;;;;;;2069782;28;20014;-80
2021/01/06 05:08:52;;;;;;;12.77;11.48;;;5.60;99.90;;;;;;2068037;28;20114;-80
2021/01/06 05:10:17;;;;;;;13.35;12.05;;;5.60;99.90;;;;;;2063348;28;20081;-80
2021/01/06 05:11:17;;;;;;;11.25;10.25;;;5.60;99.90;;;;;;2059982;28;20033;-80
2021/01/06 05:12:33;;;;;;;12.57;11.27;;;5.60;99.90;;;;;;2062484;28;20050;-81
2021/01/06 05:13:40;;;;;;;12.80;11.55;;;5.60;99.90;;;;;;2066272;28;20037;-82
2021/01/06 05:14:56;;;;;;;13.05;11.82;;;5.60;99.90;;;;;;2071474;28;20026;-80
2021/01/06 05:16:02;;;;;;;12.77;11.48;;;5.60;99.90;;;;;;2070540;28;20033;-80
2021/01/06 05:17:04;;;;;;;12.82;11.00;;;5.50;99.90;;;;;;2070109;28;20419;-80
2021/01/06 05:18:05;;;;;;;12.00;10.80;;;5.60;99.90;;;;;;2071127;28;20483;-80
2021/01/06 05:19:14;;;;;;;12.50;10.98;;;5.60;99.90;;;;;;2071586;28;20038;-83
2021/01/06 05:20:16;;;;;;;12.50;11.30;;;5.60;99.90;;;;;;2071301;28;20026;-80
2021/01/06 05:21:23;;;;;;;11.73;10.32;;;5.60;99.90;;;;;;2071245;28;20030;-81
2021/01/06 05:22:23;;;;;;;14.15;12.23;;;5.60;99.90;;;;;;2071342;28;20429;-80
2021/01/06 05:23:28;;;;;;;12.25;11.07;;;5.60;99.90;;;;;;2070543;28;20136;-82
2021/01/06 05:24:34;;;;;;;12.82;11.32;;;5.60;99.90;;;;;;2063224;28;20027;-81
2021/01/06 05:25:36;;;;;;;13.50;10.88;;;5.60;99.90;;;;;;2070782;28;20093;-82
2021/01/06 05:26:37;;;;;;;11.98;10.73;;;5.60;99.90;;;;;;2070821;28;20121;-80
2021/01/06 05:27:40;;;;;;;13.18;11.43;;;5.60;99.90;;;;;;2070002;28;20048;-80
2021/01/06 05:28:44;;;;;;;13.82;12.45;;;5.60;99.90;;;;;;2071300;28;21019;-80
2021/01/06 05:29:48;;;;;;;12.70;11.60;;;5.60;99.90;;;;;;2071382;28;20030;-81
2021/01/06 05:30:55;;;;;;;13.95;12.40;;;5.60;99.90;;;;;;2071231;28;20018;-80
2021/01/06 05:31:56;;;;;;;14.32;12.80;;;5.70;99.90;;;;;;2071420;28;20022;-81
2021/01/06 05:33:06;;;;;;;14.23;12.73;;;5.70;99.90;;;;;;2070925;28;20022;-80
2021/01/06 05:34:06;;;;;;;13.30;12.00;;;5.70;99.90;;;;;;2072044;28;20504;-80
2021/01/06 05:35:23;;;;;;;13.77;12.48;;;5.60;99.90;;;;;;2071086;28;20030;-81
2021/01/06 05:36:29;;;;;;;16.88;12.82;;;5.70;99.90;;;;;;2071182;28;20033;-80
2021/01/06 05:37:31;;;;;;;14.45;12.93;;;5.60;99.90;;;;;;2070837;28;20022;-80
2021/01/06 05:38:32;;;;;;;13.10;11.77;;;5.60;99.90;;;;;;2071388;28;20022;-80
2021/01/06 05:39:33;;;;;;;14.52;13.02;;;5.60;99.90;;;;;;2071560;28;20034;-82
2021/01/06 05:40:36;;;;;;;14.35;12.95;;;5.60;99.90;;;;;;2072291;28;20022;-82
2021/01/06 05:41:39;;;;;;;13.15;11.85;;;5.70;99.90;;;;;;2071958;28;20041;-81
2021/01/06 05:42:49;;;;;;;13.93;12.60;;;5.70;99.90;;;;;;2071646;28;20033;-82
2021/01/06 05:43:52;;;;;;;13.15;11.85;;;5.70;99.90;;;;;;2070276;28;20022;-82
2021/01/06 05:44:58;;;;;;;13.70;12.15;;;5.60;99.90;;;;;;2071757;28;20018;-81